Time;durP1;ratioP1;P1;durP2;ratioP2;P2;SDS_P1;SDS_P2;PMS_P1;PMS_P2;Temp;Humidity;BMP_temperature;BMP_pressure;BME280_temperature;BME280_humidity;BME280_pressure;Samples;Min_cycle;Max_cycle;Signal;HPM_P1;HPM_P2
2022/04/19 00:01:16;;;;;;;4.18;2.15;;;;;;;9.43;76.24;99752.50;5071410;28;20476;-63
2022/04/19 00:03:41;;;;;;;5.07;2.10;;;;;;;9.31;76.66;99747.56;5071464;28;20158;-63
2022/04/19 00:06:07;;;;;;;3.33;2.13;;;;;;;9.25;76.92;99747.78;5071335;28;20107;-63
2022/04/19 00:08:32;;;;;;;5.03;1.90;;;;;;;9.30;76.91;99746.72;5071502;28;20395;-63
2022/04/19 00:10:59;;;;;;;2.40;1.85;;;;;;;9.27;76.55;99751.25;5070834;28;20044;-63
2022/04/19 00:13:24;;;;;;;3.40;1.88;;;;;;;9.27;76.60;99745.94;5071293;28;20076;-63
2022/04/19 00:15:50;;;;;;;2.65;1.85;;;;;;;9.23;77.22;99745.19;5059807;28;20116;-63
2022/04/19 00:18:16;;;;;;;4.30;2.03;;;;;;;9.11;76.86;99739.38;5084116;28;20491;-63
2022/04/19 00:20:44;;;;;;;3.53;1.90;;;;;;;9.12;76.71;99743.78;5091276;28;20047;-63
2022/04/19 00:23:13;;;;;;;3.35;1.80;;;;;;;9.08;77.12;99743.00;5074202;28;20033;-63
2022/04/19 00:25:43;;;;;;;3.80;1.85;;;;;;;9.07;77.53;99743.94;5071103;28;20024;-63
2022/04/19 00:28:09;;;;;;;3.25;1.98;;;;;;;9.11;77.80;99739.38;5053368;28;20049;-63
2022/04/19 00:30:35;;;;;;;3.20;1.95;;;;;;;9.05;77.71;99742.22;5051015;28;20549;-63
2022/04/19 00:33:01;;;;;;;3.55;2.17;;;;;;;9.06;78.36;99736.88;5050988;28;20043;-63
2022/04/19 00:35:28;;;;;;;4.45;2.22;;;;;;;9.05;78.24;99734.25;5054017;28;20037;-63
2022/04/19 00:37:54;;;;;;;3.72;2.17;;;;;;;8.89;78.05;99717.97;5053761;28;20029;-63
2022/04/19 00:40:19;;;;;;;3.47;1.90;;;;;;;8.77;79.24;99741.31;5054225;28;20353;-63
2022/04/19 00:42:45;;;;;;;4.80;2.03;;;;;;;8.67;79.99;99729.25;5054827;28;20036;-63
2022/04/19 00:45:10;;;;;;;3.30;1.90;;;;;;;8.61;80.73;99725.00;5070829;28;20070;-63
2022/04/19 00:47:38;;;;;;;4.00;2.40;;;;;;;8.55;81.40;99726.97;5063592;28;20096;-63
2022/04/19 00:50:05;;;;;;;3.33;2.05;;;;;;;8.47;81.99;99731.59;5054766;28;20434;-63
2022/04/19 00:52:32;;;;;;;3.42;2.22;;;;;;;8.43;82.08;99724.66;5065862;28;20013;-63
2022/04/19 00:54:59;;;;;;;5.78;2.60;;;;;;;8.35;81.83;99724.00;5074588;28;20116;-63
2022/04/19 00:57:25;;;;;;;4.15;2.00;;;;;;;8.31;81.63;99725.88;5077212;28;20024;-63
2022/04/19 00:59:54;;;;;;;4.03;2.13;;;;;;;8.26;82.55;99725.13;5074250;28;20384;-63
2022/04/19 01:02:21;;;;;;;4.05;2.17;;;;;;;8.27;82.57;99720.72;5074728;28;20028;-63
2022/04/19 01:04:47;;;;;;;4.60;2.10;;;;;;;8.24;82.45;99716.34;5074263;28;20029;-63
2022/04/19 01:07:12;;;;;;;3.90;2.20;;;;;;;8.26;81.95;99713.66;5074161;28;20094;-63
2022/04/19 01:09:38;;;;;;;3.30;2.15;;;;;;;8.20;82.61;99711.16;5074111;28;20119;-63
2022/04/19 01:14:50;;;;;;;3.35;2.28;;;;;;;8.18;82.65;99711.19;5074293;28;20031;-63
2022/04/19 01:17:16;;;;;;;4.40;2.67;;;;;;;8.11;83.02;99706.97;5068557;28;20032;-63
2022/04/19 01:19:42;;;;;;;3.40;2.25;;;;;;;7.94;83.23;99696.84;5073697;28;20442;-63
2022/04/19 01:22:12;;;;;;;6.63;2.50;;;;;;;8.00;83.83;99709.94;5089470;28;20495;-63
2022/04/19 01:24:39;;;;;;;5.78;2.35;;;;;;;7.91;83.92;99704.00;5094221;28;20028;-63
2022/04/19 01:27:05;;;;;;;3.67;2.03;;;;;;;7.86;84.22;99704.13;5094211;28;20471;-63
2022/04/19 01:29:33;;;;;;;3.78;2.35;;;;;;;7.98;84.51;99705.56;5094367;28;20030;-63
2022/04/19 01:32:02;;;;;;;4.30;2.30;;;;;;;8.04;84.00;99698.34;5093872;28;20039;-63
2022/04/19 01:34:27;;;;;;;5.07;3.00;;;;;;;8.02;83.86;99694.84;5094081;28;20031;-62
2022/04/19 01:36:53;;;;;;;3.97;2.45;;;;;;;8.07;83.28;99704.47;5080758;28;20779;-63
2022/04/19 01:40:16;;;;;;;3.92;2.35;;;;;;;8.14;83.33;99698.09;5073615;28;20059;-63
2022/04/19 01:42:07;;;;;;;4.00;2.60;;;;;;;8.23;82.41;99708.41;5072807;28;20459;-63
2022/04/19 01:44:33;;;;;;;3.67;2.35;;;;;;;8.18;82.02;99697.09;5071550;28;20027;-63
2022/04/19 01:47:01;;;;;;;4.18;2.67;;;;;;;8.16;82.34;99696.25;5070845;28;20546;-63
2022/04/19 01:49:27;;;;;;;4.03;2.10;;;;;;;8.15;82.92;99711.28;5071774;28;20024;-63
2022/04/19 01:51:52;;;;;;;3.90;2.50;;;;;;;8.08;82.76;99707.06;5077946;28;20035;-63
2022/04/19 01:54:18;;;;;;;3.97;2.72;;;;;;;8.09;82.82;99721.19;5091974;28;20032;-63
2022/04/19 01:56:44;;;;;;;4.55;2.53;;;;;;;8.07;83.32;99718.59;5092193;28;20024;-63
2022/04/19 01:59:09;;;;;;;6.30;2.78;;;;;;;8.05;83.26;99712.47;5093186;28;20494;-63
2022/04/19 02:01:35;;;;;;;4.07;2.67;;;;;;;8.01;82.78;99709.03;5093734;28;20056;-63
2022/04/19 02:04:00;;;;;;;5.00;2.55;;;;;;;7.83;83.00;99709.50;5093676;28;20043;-63
2022/04/19 02:06:26;;;;;;;7.75;2.70;;;;;;;7.81;85.05;99708.69;5093527;28;20380;-63
2022/04/19 02:08:51;;;;;;;3.00;2.47;;;;;;;7.81;85.17;99705.16;5093471;28;20031;-63
2022/04/19 02:11:17;;;;;;;5.03;2.50;;;;;;;7.80;85.76;99709.59;5092939;28;20418;-63
2022/04/19 02:13:42;;;;;;;4.13;2.42;;;;;;;7.73;85.88;99707.13;5075119;28;20024;-63
2022/04/19 02:16:09;;;;;;;4.75;2.25;;;;;;;7.66;85.69;99705.56;5073049;28;20494;-63
2022/04/19 02:18:34;;;;;;;4.30;2.75;;;;;;;7.42;85.59;99696.47;5093210;28;20051;-63
2022/04/19 02:21:00;;;;;;;4.07;2.60;;;;;;;7.40;86.05;99703.56;5085795;28;20083;-63
2022/04/19 02:23:26;;;;;;;4.78;2.55;;;;;;;7.45;86.75;99701.69;5092270;28;20446;-63
2022/04/19 02:25:55;;;;;;;4.10;2.50;;;;;;;7.44;87.18;99699.06;5092917;28;20126;-63
2022/04/19 02:28:21;;;;;;;4.68;2.92;;;;;;;7.49;86.96;99706.00;5093106;28;20047;-63
2022/04/19 02:30:46;;;;;;;4.45;2.88;;;;;;;7.47;86.47;99701.66;5092872;28;20024;-63
2022/04/19 02:33:12;;;;;;;4.45;2.58;;;;;;;7.29;86.60;99697.69;5092803;28;20031;-63
2022/04/19 02:35:38;;;;;;;6.07;2.83;;;;;;;7.19;86.62;99697.94;5092787;28;20028;-63
2022/04/19 02:38:03;;;;;;;4.93;2.72;;;;;;;7.18;87.45;99696.22;5092967;28;20490;-63
2022/04/19 02:40:29;;;;;;;4.05;2.67;;;;;;;7.16;87.09;99698.00;5092794;28;20023;-63
2022/04/19 02:42:55;;;;;;;6.32;3.38;;;;;;;7.11;87.98;99684.91;5092009;28;20008;-63
2022/04/19 02:45:22;;;;;;;5.07;2.83;;;;;;;7.22;88.12;99695.22;5091875;28;20035;-63
2022/04/19 02:47:49;;;;;;;3.83;2.72;;;;;;;7.30;87.63;99690.59;5074643;28;20111;-63
2022/04/19 02:50:16;;;;;;;5.15;3.20;;;;;;;7.27;88.01;99695.97;5092663;28;20024;-63
2022/04/19 02:52:41;;;;;;;5.50;3.53;;;;;;;7.25;87.31;99700.44;5091732;28;20023;-63
2022/04/19 02:55:07;;;;;;;5.60;3.33;;;;;;;7.12;87.64;99701.63;5091026;28;20483;-63
2022/04/19 02:57:33;;;;;;;5.68;2.97;;;;;;;7.07;87.87;99699.09;5092109;28;20055;-63
2022/04/19 02:59:59;;;;;;;4.38;2.95;;;;;;;6.93;87.89;99702.97;5092342;28;20111;-63
2022/04/19 03:02:24;;;;;;;5.50;2.90;;;;;;;6.85;88.28;99707.56;5092565;28;20077;-63
2022/04/19 03:04:50;;;;;;;6.70;3.33;;;;;;;6.83;88.66;99699.69;5092073;28;20020;-63
2022/04/19 03:07:15;;;;;;;5.72;3.35;;;;;;;6.81;88.84;99697.94;5092069;28;20038;-63
2022/04/19 03:09:41;;;;;;;4.07;2.63;;;;;;;6.84;89.26;99697.91;5074555;28;20025;-63
2022/04/19 03:12:10;;;;;;;3.20;2.45;;;;;;;6.83;88.43;99698.78;5071853;28;20025;-63
2022/04/19 03:14:36;;;;;;;4.43;2.63;;;;;;;6.72;88.24;99691.13;5071822;28;20020;-63
2022/04/19 03:17:01;;;;;;;4.45;2.95;;;;;;;6.70;88.92;99687.63;5071827;28;20459;-63
2022/04/19 03:19:26;;;;;;;3.83;2.90;;;;;;;6.79;89.38;99694.50;5053782;28;20145;-63
2022/04/19 03:21:52;;;;;;;6.53;2.78;;;;;;;6.83;88.46;99693.50;5091645;28;20051;-63
2022/04/19 03:29:45;;;;;;;4.55;2.83;;;;;;;6.60;89.87;99696.66;5091830;28;20038;-63
2022/04/19 03:32:11;;;;;;;7.53;2.78;;;;;;;6.56;89.59;99689.69;5092104;28;20107;-63
2022/04/19 03:34:37;;;;;;;5.10;2.85;;;;;;;6.52;89.69;99693.34;5091544;28;20016;-63
2022/04/19 03:37:03;;;;;;;5.50;3.53;;;;;;;6.44;89.94;99685.56;5090346;28;20380;-63
2022/04/19 03:39:28;;;;;;;6.00;3.50;;;;;;;6.52;89.90;99688.88;5091656;28;20081;-63
2022/04/19 03:41:57;;;;;;;7.20;3.05;;;;;;;6.56;89.83;99689.69;5088765;28;20031;-63
2022/04/19 03:44:22;;;;;;;7.53;3.50;;;;;;;6.58;89.91;99693.19;5091650;28;20020;-63
2022/04/19 03:49:32;;;;;;;5.15;3.03;;;;;;;6.63;90.07;99692.19;5091466;28;20101;-63
2022/04/19 03:51:57;;;;;;;5.00;3.58;;;;;;;6.72;90.22;99684.97;5091707;28;20032;-63
2022/04/19 03:54:23;;;;;;;5.50;3.35;;;;;;;6.72;90.35;99680.56;5091387;28;20024;-63
2022/04/19 03:56:48;;;;;;;6.55;3.80;;;;;;;6.81;89.86;99696.19;5091825;28;20055;-63
2022/04/19 03:59:14;;;;;;;5.30;3.63;;;;;;;6.64;89.69;99698.31;5091405;28;20024;-63
2022/04/19 04:01:39;;;;;;;4.90;3.40;;;;;;;6.54;90.46;99710.00;5091651;28;20440;-63
2022/04/19 04:04:07;;;;;;;5.35;3.20;;;;;;;6.46;90.01;99704.88;5091299;28;20016;-63
2022/04/19 04:06:35;;;;;;;5.80;3.20;;;;;;;6.40;90.24;99705.03;5092015;28;20111;-63
2022/04/19 04:09:00;;;;;;;8.57;3.10;;;;;;;6.27;90.32;99710.59;5091765;28;20016;-63
2022/04/19 04:11:26;;;;;;;5.55;3.10;;;;;;;6.32;90.12;99712.25;5094216;28;20551;-63
2022/04/19 04:13:51;;;;;;;6.40;3.22;;;;;;;6.26;89.56;99701.78;5094816;28;20024;-63
2022/04/19 04:16:17;;;;;;;5.13;3.40;;;;;;;6.30;89.86;99705.22;5095670;28;20031;-63
2022/04/19 04:18:42;;;;;;;7.53;3.47;;;;;;;6.41;89.44;99700.59;5093088;28;20036;-63
2022/04/19 04:21:07;;;;;;;4.22;2.92;;;;;;;6.26;89.44;99704.41;5075397;28;20512;-63
2022/04/19 04:23:33;;;;;;;7.07;3.50;;;;;;;6.25;89.46;99707.09;5094059;28;20032;-63
2022/04/19 04:26:01;;;;;;;6.65;3.40;;;;;;;6.16;89.63;99708.16;5077924;28;20082;-63
2022/04/19 04:28:26;;;;;;;5.93;3.35;;;;;;;6.08;90.16;99706.59;5075105;28;20025;-63
2022/04/19 04:30:52;;;;;;;7.65;3.45;;;;;;;5.99;90.41;99718.19;5074790;28;20028;-63
2022/04/19 04:33:17;;;;;;;6.50;3.65;;;;;;;6.02;90.88;99714.59;5074679;28;20021;-63
2022/04/19 04:35:43;;;;;;;7.93;3.63;;;;;;;5.95;90.95;99713.84;5074961;28;20127;-63
2022/04/19 04:38:08;;;;;;;6.82;4.00;;;;;;;6.05;91.07;99717.19;5077445;28;20036;-63
2022/04/19 04:40:34;;;;;;;6.30;3.83;;;;;;;6.09;90.98;99719.75;5074554;28;20047;-63
2022/04/19 04:42:59;;;;;;;5.72;3.85;;;;;;;6.22;91.32;99723.00;5089995;28;20087;-63
2022/04/19 04:45:26;;;;;;;6.97;3.33;;;;;;;6.15;90.42;99713.47;5094467;28;20044;-63
2022/04/19 04:50:36;;;;;;;6.32;3.80;;;;;;;6.19;90.07;99720.44;5095077;28;20081;-63
2022/04/19 04:53:02;;;;;;;6.38;3.80;;;;;;;6.11;90.37;99730.28;5094861;28;20468;-63
2022/04/19 04:55:28;;;;;;;6.18;3.53;;;;;;;6.12;90.77;99724.09;5094732;28;20032;-63
2022/04/19 04:57:57;;;;;;;6.15;3.45;;;;;;;6.08;90.75;99727.69;5095169;28;20148;-63
2022/04/19 05:00:23;;;;;;;6.55;3.85;;;;;;;6.17;91.34;99728.38;5094360;28;20111;-63
2022/04/19 05:02:48;;;;;;;6.90;4.03;;;;;;;6.24;91.10;99723.84;5094740;28;20103;-63
2022/04/19 05:05:14;;;;;;;6.35;3.72;;;;;;;6.36;91.04;99734.16;5094500;28;20023;-63
2022/04/19 05:07:39;;;;;;;6.95;3.78;;;;;;;6.44;91.17;99726.97;5090156;28;20375;-63
2022/04/19 05:10:06;;;;;;;7.25;3.80;;;;;;;6.62;90.44;99724.78;5074171;28;20399;-63
2022/04/19 05:12:31;;;;;;;10.10;4.20;;;;;;;6.59;90.31;99722.22;5074185;28;20119;-63
2022/04/19 05:14:57;;;;;;;8.05;4.07;;;;;;;6.63;91.22;99730.94;5093561;28;20028;-63
2022/04/19 05:17:23;;;;;;;5.88;3.53;;;;;;;6.72;90.82;99733.41;5094428;28;20024;-63
2022/04/19 05:19:49;;;;;;;7.72;3.50;;;;;;;7.03;90.53;99731.81;5094286;28;20436;-63
2022/04/19 05:22:14;;;;;;;6.38;3.60;;;;;;;7.14;88.38;99734.19;5092953;28;20044;-63
2022/04/19 05:24:39;;;;;;;6.25;4.18;;;;;;;7.19;88.59;99732.31;5094318;28;20028;-63
2022/04/19 05:27:05;;;;;;;10.80;5.30;;;;;;;7.37;87.42;99730.09;5094392;28;20779;-63
2022/04/19 05:29:30;;;;;;;11.38;5.28;;;;;;;7.71;87.87;99736.28;5093981;28;20571;-63
2022/04/19 05:31:56;;;;;;;10.25;4.80;;;;;;;7.98;86.79;99734.72;5094145;28;20081;-63
2022/04/19 05:34:21;;;;;;;8.77;5.00;;;;;;;8.14;85.21;99729.88;5093907;28;20020;-63
2022/04/19 05:36:47;;;;;;;8.57;4.32;;;;;;;8.25;85.18;99734.00;5094235;28;20373;-63
2022/04/19 05:39:12;;;;;;;6.68;4.07;;;;;;;8.36;85.53;99734.56;5090820;28;20032;-63
2022/04/19 05:41:40;;;;;;;8.57;4.85;;;;;;;9.01;87.63;99736.13;5093957;28;20027;-63
2022/04/19 05:44:06;;;;;;;6.72;4.28;;;;;;;9.77;80.72;99736.34;5093807;28;20095;-63
2022/04/19 05:46:32;;;;;;;8.50;4.32;;;;;;;10.06;75.61;99745.03;5093792;28;20067;-63
2022/04/19 05:48:57;;;;;;;7.97;4.72;;;;;;;9.92;74.89;99731.34;5093674;28;20056;-63
2022/04/19 05:51:22;;;;;;;7.47;4.05;;;;;;;9.80;75.31;99734.41;5093846;28;20024;-63
2022/04/19 05:53:48;;;;;;;5.60;3.80;;;;;;;10.06;76.69;99745.03;5092951;28;20036;-63
2022/04/19 05:56:13;;;;;;;5.85;3.47;;;;;;;10.89;77.05;99727.84;5092355;28;20555;-63
2022/04/19 05:58:39;;;;;;;11.80;5.72;;;;;;;12.59;69.95;99733.94;5093467;28;20402;-63
2022/04/19 06:01:06;;;;;;;11.10;4.95;;;;;;;13.40;63.72;99729.22;5093618;28;20100;-63
2022/04/19 06:06:15;;;;;;;12.02;5.15;;;;;;;12.58;62.44;99741.09;5093794;28;20497;-63
2022/04/19 06:08:42;;;;;;;8.98;4.97;;;;;;;12.03;65.05;99746.22;5093458;28;20028;-63
2022/04/19 06:11:11;;;;;;;10.13;4.68;;;;;;;11.87;67.13;99746.91;5093442;28;20110;-64
2022/04/19 06:13:36;;;;;;;5.75;3.78;;;;;;;12.04;65.34;99732.84;5093551;28;20066;-64
2022/04/19 06:16:02;;;;;;;6.82;4.32;;;;;;;12.50;64.73;99740.56;5089850;28;20497;-64
2022/04/19 06:18:27;;;;;;;8.30;4.93;;;;;;;12.61;63.53;99748.94;5093163;28;20034;-64
2022/04/19 06:20:54;;;;;;;8.63;4.03;;;;;;;12.72;63.27;99744.00;5092930;28;20046;-64
2022/04/19 06:23:20;;;;;;;7.93;4.53;;;;;;;14.00;60.86;99748.44;5074403;28;20124;-64
2022/04/19 06:25:45;;;;;;;8.60;4.30;;;;;;;15.36;55.71;99741.97;5072558;28;20107;-64
2022/04/19 06:28:11;;;;;;;7.93;4.78;;;;;;;15.46;53.50;99748.56;5073027;28;20024;-64
2022/04/19 06:30:36;;;;;;;6.00;3.63;;;;;;;15.97;52.41;99746.50;5066681;28;20468;-64
2022/04/19 06:33:02;;;;;;;8.63;4.15;;;;;;;16.75;49.33;99749.81;5052378;28;20129;-64
2022/04/19 06:35:27;;;;;;;8.30;3.95;;;;;;;17.31;47.92;99743.53;5065548;28;20025;-64
2022/04/19 06:37:52;;;;;;;7.38;3.60;;;;;;;17.10;47.05;99753.81;5072603;28;20020;-64
2022/04/19 06:40:18;;;;;;;5.68;3.60;;;;;;;16.49;48.21;99746.03;5072486;28;20047;-64
2022/04/19 06:42:44;;;;;;;5.70;4.22;;;;;;;16.21;49.31;99756.66;5072542;28;20479;-64
2022/04/19 06:45:11;;;;;;;6.68;3.85;;;;;;;16.42;49.06;99754.53;5072271;28;20027;-64
2022/04/19 06:47:37;;;;;;;6.05;3.53;;;;;;;16.89;48.53;99763.25;5071688;28;20016;-64
2022/04/19 06:50:03;;;;;;;6.40;3.90;;;;;;;17.45;47.67;99757.84;5072423;28;20055;-64
2022/04/19 06:52:29;;;;;;;5.53;3.60;;;;;;;17.97;46.75;99753.47;5071602;28;20110;-64
2022/04/19 06:54:54;;;;;;;6.75;4.13;;;;;;;18.43;45.52;99761.16;5070307;28;20199;-64
2022/04/19 06:57:20;;;;;;;7.07;3.72;;;;;;;18.66;43.64;99745.16;5069731;28;20112;-64
2022/04/19 06:59:46;;;;;;;5.72;3.28;;;;;;;18.89;43.58;99748.91;5069874;28;20388;-64
2022/04/19 07:02:12;;;;;;;6.63;3.83;;;;;;;18.95;41.90;99745.78;5070979;28;20136;-63
2022/04/19 07:04:39;;;;;;;6.20;3.28;;;;;;;19.13;42.08;99752.53;5070658;28;20735;-64
2022/04/19 07:07:06;;;;;;;7.05;3.75;;;;;;;18.53;43.73;99749.66;5070635;28;20028;-64
2022/04/19 07:09:31;;;;;;;5.15;3.35;;;;;;;18.36;44.40;99758.00;5050036;28;20051;-64
2022/04/19 07:11:57;;;;;;;5.55;3.53;;;;;;;18.30;44.72;99753.03;5032202;28;20028;-64
2022/04/19 07:14:22;;;;;;;6.65;3.63;;;;;;;18.59;44.97;99748.34;5015869;28;20432;-64
2022/04/19 07:16:48;;;;;;;6.53;3.58;;;;;;;18.83;43.40;99752.03;5061444;28;20123;-64
2022/04/19 07:19:14;;;;;;;7.70;3.67;;;;;;;19.07;42.88;99744.91;5075065;28;20032;-63
2022/04/19 07:27:07;;;;;;;5.65;3.30;;;;;;;19.72;40.07;99754.47;5071685;28;20034;-64
2022/04/19 07:29:32;;;;;;;8.05;3.80;;;;;;;19.85;40.39;99755.28;5071636;28;20379;-64
2022/04/19 07:31:58;;;;;;;5.35;3.40;;;;;;;19.83;39.75;99749.16;5071776;28;20251;-64
2022/04/19 07:34:24;;;;;;;5.03;2.95;;;;;;;20.08;41.02;99740.09;5071428;28;20020;-64
2022/04/19 07:36:49;;;;;;;6.70;3.53;;;;;;;20.44;39.99;99735.47;5070624;28;20411;-64
2022/04/19 07:39:15;;;;;;;5.78;3.38;;;;;;;20.65;39.30;99746.44;5071758;28;20028;-64
2022/04/19 07:41:46;;;;;;;5.90;3.65;;;;;;;20.98;39.66;99745.66;5071558;28;20027;-64
2022/04/19 07:44:14;;;;;;;5.88;3.65;;;;;;;21.05;38.67;99749.59;5070686;28;20044;-64
2022/04/19 07:46:42;;;;;;;5.10;3.13;;;;;;;21.47;38.21;99732.59;5071944;28;20032;-64
2022/04/19 07:49:08;;;;;;;4.97;2.75;;;;;;;21.89;37.25;99748.91;5066385;28;20032;-64
2022/04/19 07:51:34;;;;;;;4.80;3.13;;;;;;;22.27;36.05;99732.19;5055019;28;20032;-64
2022/04/19 07:54:00;;;;;;;6.38;3.42;;;;;;;21.73;37.70;99731.34;5071483;28;20048;-64
2022/04/19 07:56:26;;;;;;;5.00;3.10;;;;;;;21.90;37.36;99744.38;5071682;28;20481;-64
2022/04/19 07:58:52;;;;;;;5.45;3.28;;;;;;;22.04;36.68;99735.97;5070779;28;20029;-64
2022/04/19 08:01:18;;;;;;;5.93;3.00;;;;;;;22.12;37.51;99736.19;5069442;28;20140;-64
2022/04/19 08:03:44;;;;;;;4.57;2.60;;;;;;;22.35;37.31;99729.66;5069517;28;20486;-64
2022/04/19 08:06:10;;;;;;;4.85;2.75;;;;;;;22.17;36.28;99739.38;5070112;28;20084;-64
2022/04/19 08:08:37;;;;;;;5.20;3.00;;;;;;;22.02;36.91;99741.53;5070573;28;20028;-64
2022/04/19 08:11:05;;;;;;;3.78;2.63;;;;;;;22.40;36.23;99735.56;5070472;28;20442;-64
2022/04/19 08:13:31;;;;;;;6.90;2.50;;;;;;;22.07;35.14;99741.13;5056999;28;20024;-64
2022/04/19 08:15:56;;;;;;;7.25;2.88;;;;;;;21.85;36.21;99730.34;5051143;28;20045;-64
2022/04/19 08:18:25;;;;;;;6.20;2.97;;;;;;;21.98;36.83;99741.88;5051306;28;20503;-64
2022/04/19 08:20:51;;;;;;;4.65;3.03;;;;;;;21.85;36.07;99723.09;5055503;28;20404;-64
2022/04/19 08:23:17;;;;;;;5.90;2.80;;;;;;;22.28;36.22;99730.31;5070189;28;20036;-64
2022/04/19 08:25:43;;;;;;;7.82;3.20;;;;;;;22.99;36.09;99724.97;5070993;28;20025;-64
2022/04/19 08:28:09;;;;;;;4.35;2.72;;;;;;;23.29;35.16;99727.72;5071099;28;20028;-64
2022/04/19 08:30:34;;;;;;;7.28;2.90;;;;;;;23.35;35.13;99721.75;5071026;28;20108;-64
2022/04/19 08:33:00;;;;;;;4.22;2.40;;;;;;;23.61;35.34;99716.69;5058979;28;20113;-64
2022/04/19 08:35:26;;;;;;;7.47;3.33;;;;;;;23.84;33.63;99715.44;5053638;28;20112;-64
2022/04/19 08:37:52;;;;;;;4.63;2.50;;;;;;;23.92;35.05;99716.44;5051070;28;20020;-64
2022/04/19 08:40:18;;;;;;;5.35;2.58;;;;;;;23.86;33.93;99714.28;5050912;28;20025;-64
2022/04/19 08:42:45;;;;;;;4.75;2.83;;;;;;;23.93;34.95;99717.31;5050973;28;20039;-64
2022/04/19 08:45:13;;;;;;;4.00;2.40;;;;;;;23.98;34.96;99701.47;5050751;28;20025;-64
2022/04/19 08:47:48;;;;;;;4.10;2.70;;;;;;;24.26;35.03;99708.78;5049711;28;20033;-64
2022/04/19 08:50:17;;;;;;;6.38;2.90;;;;;;;24.34;33.55;99706.19;5059323;28;20032;-64
2022/04/19 08:52:44;;;;;;;4.00;2.42;;;;;;;24.83;33.78;99703.28;5069959;28;20052;-64
2022/04/19 08:57:55;;;;;;;4.25;2.65;;;;;;;25.01;32.89;99700.66;5075083;28;20395;-64
2022/04/19 09:00:22;;;;;;;3.75;2.08;;;;;;;25.18;32.07;99708.03;5074515;28;20512;-64
2022/04/19 09:02:49;;;;;;;4.90;2.55;;;;;;;25.28;32.75;99698.81;5074684;28;20047;-64
2022/04/19 09:05:17;;;;;;;10.07;2.33;;;;;;;25.20;32.03;99703.28;5074983;28;20034;-64
2022/04/19 09:07:46;;;;;;;4.13;1.92;;;;;;;25.19;31.27;99702.44;5073625;28;20093;-64
2022/04/19 09:10:14;;;;;;;8.52;2.60;;;;;;;25.44;30.94;99699.06;5074300;28;20044;-65
2022/04/19 09:13:00;;;;;;;5.00;2.15;;;;;;;25.41;29.89;99693.91;5071173;28;20032;-65
2022/04/19 09:15:45;;;;;;;4.47;2.70;;;;;;;25.74;30.22;99687.84;5074657;28;20042;-65
2022/04/19 09:18:25;;;;;;;3.92;1.90;;;;;;;25.96;29.18;99684.66;5074040;28;20039;-64
2022/04/19 09:20:51;;;;;;;5.13;2.20;;;;;;;26.19;30.70;99689.69;5078763;28;20101;-64
2022/04/19 09:23:17;;;;;;;5.18;2.17;;;;;;;26.12;29.07;99683.13;5075278;28;20472;-64
2022/04/19 09:25:44;;;;;;;4.40;2.28;;;;;;;26.09;30.38;99684.31;5074178;28;20024;-65
2022/04/19 09:28:20;;;;;;;5.10;2.65;;;;;;;26.25;29.32;99684.47;5073614;28;20036;-65
2022/04/19 09:30:48;;;;;;;6.10;2.63;;;;;;;26.53;29.96;99683.31;5073294;28;20100;-65
2022/04/19 09:33:19;;;;;;;4.30;2.55;;;;;;;26.25;29.69;99672.69;5073854;28;20044;-65
2022/04/19 09:35:55;;;;;;;6.90;2.30;;;;;;;26.17;28.52;99669.88;5074322;28;20501;-65
2022/04/19 09:38:40;;;;;;;3.97;2.10;;;;;;;25.94;29.34;99672.19;5073697;28;20070;-65
2022/04/19 09:41:09;;;;;;;4.93;2.05;;;;;;;26.45;29.72;99675.09;5073792;28;20044;-65
2022/04/19 09:43:35;;;;;;;4.57;2.22;;;;;;;27.19;27.61;99669.97;5073995;28;20028;-65
2022/04/19 09:46:05;;;;;;;5.18;2.47;;;;;;;27.48;28.05;99667.72;5073751;28;20538;-65
2022/04/19 09:48:33;;;;;;;5.00;2.60;;;;;;;27.23;28.63;99657.69;5073141;28;20025;-65
2022/04/19 09:51:03;;;;;;;11.65;2.47;;;;;;;27.26;29.18;99657.38;5044187;28;20059;-65
2022/04/19 09:53:39;;;;;;;5.15;2.15;;;;;;;27.25;28.73;99658.38;5071001;28;20334;-65
2022/04/19 09:56:09;;;;;;;6.45;2.63;;;;;;;27.02;29.51;99659.97;5071740;28;20028;-65
2022/04/19 09:58:37;;;;;;;4.97;2.40;;;;;;;26.83;29.44;99654.75;5066018;28;20025;-65
2022/04/19 10:01:04;;;;;;;4.78;2.40;;;;;;;27.27;30.87;99648.13;5053180;28;20024;-65
2022/04/19 10:08:59;;;;;;;4.85;2.20;;;;;;;27.01;28.27;99633.69;5052721;28;20090;-65
2022/04/19 10:11:28;;;;;;;5.30;2.15;;;;;;;27.11;29.02;99629.81;5053261;28;20107;-65
2022/04/19 10:13:55;;;;;;;3.60;1.73;;;;;;;27.81;28.08;99628.50;5055919;28;20035;-66
2022/04/19 10:16:21;;;;;;;4.57;1.85;;;;;;;28.01;25.69;99631.81;5056939;28;20100;-64
2022/04/19 10:18:47;;;;;;;5.65;1.83;;;;;;;28.21;27.04;99622.25;5092990;28;20116;-64
2022/04/19 10:21:18;;;;;;;5.95;1.63;;;;;;;28.36;25.90;99618.66;5090781;28;20118;-65
2022/04/19 10:23:45;;;;;;;3.25;1.25;;;;;;;28.81;27.22;99622.72;5072055;28;20427;-64
2022/04/19 10:26:16;;;;;;;3.13;1.50;;;;;;;28.69;26.07;99618.63;5070954;28;20044;-64
2022/04/19 10:28:42;;;;;;;5.25;1.60;;;;;;;28.40;25.41;99620.00;5054755;28;20028;-65
2022/04/19 10:31:10;;;;;;;2.58;1.23;;;;;;;28.18;26.28;99608.94;5051030;28;20384;-64
2022/04/19 10:33:38;;;;;;;3.35;1.30;;;;;;;28.23;25.10;99617.47;5051330;28;20361;-64
2022/04/19 10:36:16;;;;;;;6.38;1.55;;;;;;;28.36;26.84;99618.66;5052037;28;20432;-64
2022/04/19 10:38:43;;;;;;;2.22;1.05;;;;;;;28.56;25.56;99612.84;5052887;28;20547;-64
2022/04/19 10:41:08;;;;;;;2.80;1.10;;;;;;;28.50;24.00;99608.91;5052608;28;20028;-64
2022/04/19 10:43:34;;;;;;;2.63;1.50;;;;;;;28.71;25.95;99611.97;5067375;28;20028;-64
2022/04/19 10:46:22;;;;;;;2.70;1.20;;;;;;;29.02;23.18;99603.81;5071171;28;20447;-64
2022/04/19 10:49:24;;;;;;;2.67;1.42;;;;;;;29.30;21.47;99613.34;5071602;28;20028;-65
2022/04/19 10:51:59;;;;;;;2.83;1.13;;;;;;;29.11;23.30;99609.13;5072290;28;20025;-65
2022/04/19 10:55:04;;;;;;;2.15;0.98;;;;;;;28.97;22.48;99607.09;5072334;28;20024;-65
2022/04/19 11:00:35;;;;;;;2.80;1.30;;;;;;;29.25;21.64;99599.31;5072511;28;20579;-65
2022/04/19 11:03:06;;;;;;;2.58;1.50;;;;;;;29.36;24.32;99590.69;5072008;28;20024;-65
2022/04/19 11:05:47;;;;;;;3.47;1.70;;;;;;;29.21;23.16;99597.97;5072253;28;20035;-65
2022/04/19 11:08:18;;;;;;;4.07;1.30;;;;;;;29.23;22.09;99590.41;5072018;28;20024;-65
2022/04/19 11:10:45;;;;;;;3.60;1.30;;;;;;;29.53;22.58;99586.81;5054102;28;20154;-66
2022/04/19 11:13:11;;;;;;;4.65;1.40;;;;;;;29.84;25.16;99578.59;5051869;28;20033;-65
2022/04/19 11:15:37;;;;;;;3.05;1.10;;;;;;;29.47;22.20;99576.59;5052039;28;20036;-65
2022/04/19 11:18:23;;;;;;;2.42;1.30;;;;;;;29.74;24.40;99576.09;5072117;28;20119;-64
2022/04/19 11:20:49;;;;;;;3.03;1.20;;;;;;;29.72;24.88;99569.09;5074603;28;20463;-65
2022/04/19 11:23:23;;;;;;;2.33;1.38;;;;;;;29.90;23.22;99564.16;5074085;28;20478;-65
2022/04/19 11:25:49;;;;;;;2.95;1.08;;;;;;;29.82;22.02;99569.72;5071825;28;20077;-65
2022/04/19 11:28:20;;;;;;;3.15;1.33;;;;;;;29.99;23.13;99565.78;5071775;28;20031;-65
2022/04/19 11:31:06;;;;;;;5.00;1.35;;;;;;;29.70;21.91;99568.41;5071776;28;20029;-65
2022/04/19 11:33:34;;;;;;;2.30;0.88;;;;;;;29.27;23.22;99565.22;5071448;28;20533;-65
2022/04/19 11:36:20;;;;;;;2.47;1.05;;;;;;;29.37;22.75;99559.53;5071951;28;20032;-65
2022/04/19 11:38:49;;;;;;;5.30;1.70;;;;;;;30.07;23.86;99557.47;5069910;28;20036;-65
2022/04/19 11:46:52;;;;;;;10.23;1.73;;;;;;;29.81;23.89;99552.38;5071768;28;20456;-65
2022/04/19 11:49:20;;;;;;;6.75;1.17;;;;;;;29.77;21.54;99556.53;5071558;28;20028;-65
2022/04/19 11:51:47;;;;;;;2.83;1.27;;;;;;;29.84;24.43;99546.53;5071524;28;20417;-65
2022/04/19 11:54:26;;;;;;;3.08;1.23;;;;;;;30.08;24.47;99543.59;5071263;28;20021;-65
2022/04/19 11:56:57;;;;;;;2.53;1.20;;;;;;;30.28;20.69;99543.97;5071633;28;20033;-65
2022/04/19 11:59:30;;;;;;;2.75;1.25;;;;;;;30.08;20.65;99542.75;5071149;28;20027;-65
2022/04/19 12:01:56;;;;;;;4.20;1.33;;;;;;;29.86;20.21;99544.47;5062007;28;20029;-65
2022/04/19 12:04:22;;;;;;;2.60;1.42;;;;;;;29.78;20.42;99538.19;5051344;28;20052;-65
2022/04/19 12:06:57;;;;;;;4.00;1.48;;;;;;;29.78;20.17;99544.53;5054194;28;20047;-65
2022/04/19 12:09:22;;;;;;;2.22;1.00;;;;;;;29.90;22.88;99528.50;5051323;28;20478;-65
2022/04/19 12:11:49;;;;;;;2.90;1.15;;;;;;;30.09;23.41;99539.81;5051588;28;20105;-65
2022/04/19 12:14:31;;;;;;;5.43;1.63;;;;;;;30.61;22.88;99535.16;5051424;28;20412;-65
2022/04/19 12:17:02;;;;;;;4.32;1.42;;;;;;;30.12;20.99;99522.97;5051140;28;20027;-65